createdAt,value
2018-07-13T00:05:13.425Z,23.5
2018-07-13T00:15:12.667Z,23.5
2018-07-13T00:25:11.896Z,23.5
2018-07-13T00:35:11.133Z,23.5
2018-07-13T00:45:10.368Z,23.4
2018-07-13T00:55:09.604Z,23.4
2018-07-13T01:05:08.840Z,23.4
2018-07-13T01:15:08.077Z,23.4
2018-07-13T01:25:07.315Z,23.4
2018-07-13T01:35:06.545Z,23.4
2018-07-13T01:45:05.781Z,23.3
2018-07-13T01:55:05.018Z,23.3
2018-07-13T02:05:04.252Z,23.3
2018-07-13T02:15:03.488Z,23.2
2018-07-13T02:25:02.734Z,23.2
2018-07-13T02:35:01.958Z,23.1
2018-07-13T02:45:01.199Z,23.1
2018-07-13T02:55:00.427Z,23.1
2018-07-13T03:04:59.663Z,23.1
2018-07-13T03:14:58.899Z,22.9
2018-07-13T03:24:58.136Z,22.8
2018-07-13T03:34:57.370Z,22.6
2018-07-13T03:44:56.607Z,22.5
2018-07-13T03:54:55.842Z,22.5
2018-07-13T04:04:55.081Z,22.5
2018-07-13T04:14:54.321Z,22.6
2018-07-13T04:24:53.554Z,22.7
2018-07-13T04:34:52.786Z,22.9
2018-07-13T04:44:52.022Z,23.1
2018-07-13T04:54:51.263Z,23.3
2018-07-13T05:04:50.496Z,23.7
2018-07-13T05:14:49.734Z,23.9
2018-07-13T05:24:48.972Z,24.3
2018-07-13T05:34:48.215Z,24.4
2018-07-13T05:44:47.451Z,24.6
2018-07-13T05:54:46.685Z,24.8
2018-07-13T06:04:45.922Z,24.9
2018-07-13T06:14:45.250Z,25.1
2018-07-13T06:24:44.397Z,25.1
2018-07-13T06:34:43.630Z,25.3
2018-07-13T06:44:42.922Z,25.4
2018-07-13T06:54:42.159Z,25.5
2018-07-13T07:04:41.340Z,25.6
2018-07-13T07:14:40.584Z,25.6
2018-07-13T07:24:39.816Z,25.8
2018-07-13T07:34:39.100Z,25.8
2018-07-13T07:44:38.294Z,25.9
2018-07-13T07:54:37.526Z,26.1
2018-07-13T08:04:36.763Z,26.4
2018-07-13T08:14:36.071Z,26.7
2018-07-13T08:24:35.291Z,26.8
2018-07-13T08:34:34.468Z,26.9
2018-07-13T08:44:33.710Z,27
2018-07-13T08:54:32.949Z,27.1
2018-07-13T09:04:32.197Z,27.3
2018-07-13T09:14:31.419Z,27.3
2018-07-13T09:24:30.658Z,27.3
2018-07-13T09:34:29.920Z,27.3
2018-07-13T09:44:29.133Z,27.3
2018-07-13T09:54:28.371Z,27.2
2018-07-13T10:04:27.607Z,27.1
2018-07-13T10:14:26.844Z,27
2018-07-13T10:24:26.092Z,27
2018-07-13T10:34:25.323Z,26.9
2018-07-13T10:44:24.564Z,26.9
2018-07-13T10:54:23.854Z,26.9
2018-07-13T11:04:23.056Z,26.9
2018-07-13T11:14:22.286Z,26.8
2018-07-13T11:24:21.532Z,26.8
2018-07-13T11:34:20.763Z,26.8
2018-07-13T11:44:20.008Z,26.7
2018-07-13T11:54:19.256Z,26.6
2018-07-13T12:04:18.480Z,26.6
2018-07-13T12:14:17.756Z,26.6
2018-07-13T12:24:16.955Z,26.6
2018-07-13T12:34:16.194Z,26.5
2018-07-13T12:44:15.432Z,26.4
2018-07-13T12:54:14.744Z,26.3
2018-07-13T13:04:13.905Z,26.1
2018-07-13T13:14:13.153Z,26
2018-07-13T13:24:12.381Z,25.9
2018-07-13T13:34:11.623Z,25.8
2018-07-13T13:44:10.854Z,25.8
2018-07-13T13:54:10.093Z,25.9
2018-07-13T14:04:09.340Z,25.9
2018-07-13T14:14:08.566Z,25.9
2018-07-13T14:24:07.804Z,26
2018-07-13T14:34:07.046Z,26.1
2018-07-13T14:44:06.332Z,26.1
2018-07-13T14:54:05.519Z,25.9
2018-07-13T15:04:04.895Z,25.9
2018-07-13T15:14:04.043Z,25.9
2018-07-13T15:24:03.236Z,26
2018-07-13T15:34:02.470Z,26.1
2018-07-13T15:44:01.705Z,26
2018-07-13T15:54:00.943Z,26.1
2018-07-13T16:04:00.180Z,26.2
2018-07-13T16:13:59.417Z,26.3
2018-07-13T16:23:58.655Z,26.4
2018-07-13T16:33:57.917Z,26.4
2018-07-13T16:43:57.133Z,26.4
2018-07-13T16:53:56.370Z,26.4
2018-07-13T17:03:55.611Z,26.4
2018-07-13T17:13:54.850Z,26.3
2018-07-13T17:23:54.089Z,26.3
2018-07-13T17:33:53.331Z,26.2
2018-07-13T17:43:52.568Z,26.1
2018-07-13T17:53:51.806Z,25.9
2018-07-13T18:03:51.045Z,25.8
2018-07-13T18:13:50.285Z,25.6
2018-07-13T18:23:49.532Z,25.4
2018-07-13T18:33:48.764Z,25.2
2018-07-13T18:43:48.006Z,25
2018-07-13T18:53:47.300Z,24.7
2018-07-13T19:03:46.494Z,24.5
2018-07-13T19:13:45.725Z,24.2
2018-07-13T19:23:44.965Z,24
2018-07-13T19:33:44.205Z,23.8
2018-07-13T19:43:43.491Z,23.8
2018-07-13T19:53:42.680Z,23.6
2018-07-13T20:03:41.918Z,23.5
2018-07-13T20:13:41.167Z,23.5
2018-07-13T20:23:40.398Z,23.6
2018-07-13T20:33:39.637Z,23.6
2018-07-13T20:43:38.927Z,23.6
2018-07-13T20:53:38.116Z,23.7
2018-07-13T21:03:37.356Z,23.7
2018-07-13T21:13:36.595Z,23.7
2018-07-13T21:23:35.841Z,23.7
2018-07-13T21:33:35.075Z,23.7
2018-07-13T21:43:34.311Z,23.7
2018-07-13T21:53:33.551Z,23.8
2018-07-13T22:03:32.791Z,23.8
2018-07-13T22:13:32.028Z,23.7
2018-07-13T22:23:31.267Z,23.7
2018-07-13T22:33:30.505Z,23.6
2018-07-13T22:43:29.745Z,23.6
2018-07-13T22:53:28.986Z,23.6
2018-07-13T23:03:28.223Z,23.6
2018-07-13T23:13:27.461Z,23.5
2018-07-13T23:23:26.699Z,23.4
2018-07-13T23:33:25.942Z,23.4
2018-07-13T23:43:25.179Z,23.4
2018-07-13T23:53:24.413Z,23.4
